sensor_id;sensor_type;location;lat;lon;timestamp;pressure;altitude;pressure_sealevel;temperature;humidity
4972;BME280;2501;51.214;6.768;2022-07-17T00:02:20;102158.78;;;17.79;100.00
4972;BME280;2501;51.214;6.768;2022-07-17T00:04:48;102155.97;;;17.96;100.00
4972;BME280;2501;51.214;6.768;2022-07-17T00:07:17;102162.00;;;17.91;100.00
4972;BME280;2501;51.214;6.768;2022-07-17T00:09:46;102151.97;;;17.66;100.00
4972;BME280;2501;51.214;6.768;2022-07-17T00:12:14;102163.56;;;17.96;100.00
4972;BME280;2501;51.214;6.768;2022-07-17T00:14:43;102155.19;;;17.75;100.00
4972;BME280;2501;51.214;6.768;2022-07-17T00:17:11;102152.38;;;17.78;100.00
4972;BME280;2501;51.214;6.768;2022-07-17T00:19:43;102144.38;;;17.70;100.00
4972;BME280;2501;51.214;6.768;2022-07-17T00:22:11;102149.59;;;17.85;100.00
4972;BME280;2501;51.214;6.768;2022-07-17T00:24:39;102149.19;;;17.87;100.00
4972;BME280;2501;51.214;6.768;2022-07-17T00:27:08;102142.38;;;17.81;100.00
4972;BME280;2501;51.214;6.768;2022-07-17T00:29:36;102137.91;;;17.37;100.00
4972;BME280;2501;51.214;6.768;2022-07-17T00:32:05;102137.09;;;17.30;100.00
4972;BME280;2501;51.214;6.768;2022-07-17T00:34:34;102139.50;;;17.38;100.00
4972;BME280;2501;51.214;6.768;2022-07-17T00:37:05;102140.31;;;17.25;100.00
4972;BME280;2501;51.214;6.768;2022-07-17T00:39:33;102142.31;;;17.42;100.00
4972;BME280;2501;51.214;6.768;2022-07-17T00:42:02;102146.72;;;17.29;100.00
4972;BME280;2501;51.214;6.768;2022-07-17T00:44:31;102147.09;;;17.27;100.00
4972;BME280;2501;51.214;6.768;2022-07-17T00:47:00;102153.03;;;17.05;100.00
4972;BME280;2501;51.214;6.768;2022-07-17T00:49:28;102149.88;;;17.24;100.00
4972;BME280;2501;51.214;6.768;2022-07-17T00:51:56;102151.88;;;17.20;100.00
4972;BME280;2501;51.214;6.768;2022-07-17T00:54:29;102149.88;;;17.17;100.00
4972;BME280;2501;51.214;6.768;2022-07-17T00:56:59;102149.03;;;17.06;100.00
4972;BME280;2501;51.214;6.768;2022-07-17T00:59:31;102144.28;;;17.20;100.00
4972;BME280;2501;51.214;6.768;2022-07-17T01:02:00;102147.47;;;17.15;100.00
4972;BME280;2501;51.214;6.768;2022-07-17T01:04:30;102144.69;;;17.22;100.00
4972;BME280;2501;51.214;6.768;2022-07-17T01:06:59;102146.28;;;17.23;100.00
4972;BME280;2501;51.214;6.768;2022-07-17T01:09:31;102146.28;;;17.30;100.00
4972;BME280;2501;51.214;6.768;2022-07-17T01:12:00;102146.22;;;17.02;100.00
4972;BME280;2501;51.214;6.768;2022-07-17T01:14:29;102147.38;;;16.87;100.00
4972;BME280;2501;51.214;6.768;2022-07-17T01:16:58;102150.25;;;17.08;100.00
4972;BME280;2501;51.214;6.768;2022-07-17T01:19:26;102145.84;;;17.03;100.00
4972;BME280;2501;51.214;6.768;2022-07-17T01:21:57;102151.41;;;17.00;100.00
4972;BME280;2501;51.214;6.768;2022-07-17T01:24:26;102148.97;;;16.88;100.00
4972;BME280;2501;51.214;6.768;2022-07-17T01:26:54;102154.59;;;16.91;100.00
4972;BME280;2501;51.214;6.768;2022-07-17T01:29:24;102153.38;;;16.89;100.00
4972;BME280;2501;51.214;6.768;2022-07-17T01:31:52;102152.94;;;16.83;100.00
4972;BME280;2501;51.214;6.768;2022-07-17T01:34:20;102146.47;;;16.58;100.00
4972;BME280;2501;51.214;6.768;2022-07-17T01:36:49;102144.16;;;16.78;100.00
4972;BME280;2501;51.214;6.768;2022-07-17T01:39:20;102135.94;;;16.44;100.00
4972;BME280;2501;51.214;6.768;2022-07-17T01:42:09;102147.13;;;16.44;100.00
4972;BME280;2501;51.214;6.768;2022-07-17T01:44:37;102142.06;;;16.57;100.00
4972;BME280;2501;51.214;6.768;2022-07-17T01:47:06;102140.16;;;16.82;100.00
4972;BME280;2501;51.214;6.768;2022-07-17T01:49:34;102144.53;;;16.80;100.00
4972;BME280;2501;51.214;6.768;2022-07-17T01:52:03;102139.31;;;16.75;100.00
4972;BME280;2501;51.214;6.768;2022-07-17T01:54:34;102141.56;;;16.48;100.00
4972;BME280;2501;51.214;6.768;2022-07-17T01:57:03;102134.50;;;16.68;100.00
4972;BME280;2501;51.214;6.768;2022-07-17T01:59:31;102137.28;;;16.65;100.00
4972;BME280;2501;51.214;6.768;2022-07-17T02:02:00;102138.88;;;16.62;100.00
4972;BME280;2501;51.214;6.768;2022-07-17T02:04:30;102133.28;;;16.62;100.00
4972;BME280;2501;51.214;6.768;2022-07-17T02:06:58;102135.88;;;16.30;100.00
4972;BME280;2501;51.214;6.768;2022-07-17T02:09:27;102128.47;;;16.63;100.00
4972;BME280;2501;51.214;6.768;2022-07-17T02:11:58;102132.00;;;16.52;100.00
4972;BME280;2501;51.214;6.768;2022-07-17T02:14:27;102129.69;;;16.58;100.00
4972;BME280;2501;51.214;6.768;2022-07-17T02:16:55;102133.50;;;16.32;100.00
4972;BME280;2501;51.214;6.768;2022-07-17T02:19:24;102125.31;;;16.64;100.00
4972;BME280;2501;51.214;6.768;2022-07-17T02:21:53;102120.84;;;16.56;100.00
4972;BME280;2501;51.214;6.768;2022-07-17T02:24:21;102116.91;;;16.64;100.00
4972;BME280;2501;51.214;6.768;2022-07-17T02:26:50;102123.31;;;16.68;100.00
4972;BME280;2501;51.214;6.768;2022-07-17T02:29:21;102132.34;;;16.44;100.00
4972;BME280;2501;51.214;6.768;2022-07-17T02:31:50;102121.41;;;16.14;100.00
4972;BME280;2501;51.214;6.768;2022-07-17T02:34:18;102126.22;;;16.17;100.00
4972;BME280;2501;51.214;6.768;2022-07-17T02:36:47;102124.47;;;16.57;100.00
4972;BME280;2501;51.214;6.768;2022-07-17T02:39:15;102133.44;;;16.22;100.00
4972;BME280;2501;51.214;6.768;2022-07-17T02:41:44;102130.75;;;15.85;100.00
4972;BME280;2501;51.214;6.768;2022-07-17T02:44:12;102133.03;;;15.72;100.00
4972;BME280;2501;51.214;6.768;2022-07-17T02:46:43;102140.78;;;15.49;100.00
4972;BME280;2501;51.214;6.768;2022-07-17T02:49:12;102141.75;;;15.60;100.00
4972;BME280;2501;51.214;6.768;2022-07-17T02:51:40;102140.69;;;15.79;100.00
4972;BME280;2501;51.214;6.768;2022-07-17T02:54:09;102145.53;;;15.85;100.00
4972;BME280;2501;51.214;6.768;2022-07-17T02:56:37;102142.19;;;15.66;100.00
4972;BME280;2501;51.214;6.768;2022-07-17T02:59:06;102146.66;;;15.77;100.00
4972;BME280;2501;51.214;6.768;2022-07-17T03:01:34;102145.47;;;15.78;100.00
4972;BME280;2501;51.214;6.768;2022-07-17T03:04:05;102152.03;;;16.00;100.00
4972;BME280;2501;51.214;6.768;2022-07-17T03:06:34;102141.50;;;15.79;100.00
4972;BME280;2501;51.214;6.768;2022-07-17T03:09:02;102149.19;;;15.93;100.00
4972;BME280;2501;51.214;6.768;2022-07-17T03:11:31;102153.00;;;16.22;100.00
4972;BME280;2501;51.214;6.768;2022-07-17T03:13:59;102159.63;;;15.99;100.00
4972;BME280;2501;51.214;6.768;2022-07-17T03:16:28;102148.75;;;16.45;100.00
4972;BME280;2501;51.214;6.768;2022-07-17T03:18:56;102152.16;;;16.14;100.00
4972;BME280;2501;51.214;6.768;2022-07-17T03:21:27;102147.69;;;16.06;100.00
4972;BME280;2501;51.214;6.768;2022-07-17T03:23:56;102154.44;;;16.01;100.00
4972;BME280;2501;51.214;6.768;2022-07-17T03:26:24;102155.06;;;16.35;100.00
4972;BME280;2501;51.214;6.768;2022-07-17T03:28:53;102155.50;;;16.41;100.00
4972;BME280;2501;51.214;6.768;2022-07-17T03:31:21;102155.81;;;16.29;100.00
4972;BME280;2501;51.214;6.768;2022-07-17T03:33:50;102158.78;;;15.95;100.00
4972;BME280;2501;51.214;6.768;2022-07-17T03:36:18;102154.38;;;15.91;100.00
4972;BME280;2501;51.214;6.768;2022-07-17T03:38:49;102148.22;;;15.71;100.00
4972;BME280;2501;51.214;6.768;2022-07-17T03:41:18;102158.50;;;15.60;100.00
4972;BME280;2501;51.214;6.768;2022-07-17T03:43:46;102162.31;;;15.89;100.00
4972;BME280;2501;51.214;6.768;2022-07-17T03:46:15;102160.31;;;15.89;100.00
4972;BME280;2501;51.214;6.768;2022-07-17T03:48:43;102164.31;;;15.92;100.00
4972;BME280;2501;51.214;6.768;2022-07-17T03:51:12;102163.09;;;15.86;100.00
4972;BME280;2501;51.214;6.768;2022-07-17T03:53:40;102151.47;;;15.80;100.00
4972;BME280;2501;51.214;6.768;2022-07-17T03:56:11;102150.69;;;15.80;100.00
4972;BME280;2501;51.214;6.768;2022-07-17T03:58:40;102157.47;;;15.82;100.00
4972;BME280;2501;51.214;6.768;2022-07-17T04:01:08;102160.97;;;15.72;100.00
4972;BME280;2501;51.214;6.768;2022-07-17T04:03:37;102160.59;;;15.74;100.00
4972;BME280;2501;51.214;6.768;2022-07-17T04:06:05;102161.38;;;15.71;100.00
4972;BME280;2501;51.214;6.768;2022-07-17T04:08:34;102170.94;;;15.70;100.00
4972;BME280;2501;51.214;6.768;2022-07-17T04:11:02;102160.56;;;15.70;100.00
4972;BME280;2501;51.214;6.768;2022-07-17T04:13:33;102165.38;;;15.73;100.00
4972;BME280;2501;51.214;6.768;2022-07-17T04:16:02;102156.16;;;15.69;100.00
4972;BME280;2501;51.214;6.768;2022-07-17T04:18:32;102170.56;;;15.71;100.00
4972;BME280;2501;51.214;6.768;2022-07-17T04:21:03;102160.22;;;15.75;100.00
4972;BME280;2501;51.214;6.768;2022-07-17T04:25:04;102148.31;;;15.85;100.00
4972;BME280;2501;51.214;6.768;2022-07-17T04:27:33;102153.09;;;15.81;100.00
4972;BME280;2501;51.214;6.768;2022-07-17T04:30:01;102154.94;;;15.67;100.00
4972;BME280;2501;51.214;6.768;2022-07-17T04:32:30;102160.22;;;15.75;100.00
4972;BME280;2501;51.214;6.768;2022-07-17T04:34:58;102168.56;;;15.72;100.00
4972;BME280;2501;51.214;6.768;2022-07-17T04:37:27;102167.06;;;15.85;100.00
4972;BME280;2501;51.214;6.768;2022-07-17T04:39:55;102167.50;;;15.87;100.00
4972;BME280;2501;51.214;6.768;2022-07-17T04:42:27;102176.28;;;15.89;100.00
4972;BME280;2501;51.214;6.768;2022-07-17T04:44:55;102179.06;;;15.89;100.00
4972;BME280;2501;51.214;6.768;2022-07-17T04:47:23;102176.75;;;15.94;100.00
4972;BME280;2501;51.214;6.768;2022-07-17T04:49:52;102177.84;;;15.83;100.00
4972;BME280;2501;51.214;6.768;2022-07-17T04:52:20;102175.03;;;15.83;100.00
4972;BME280;2501;51.214;6.768;2022-07-17T04:54:49;102179.44;;;15.84;100.00
4972;BME280;2501;51.214;6.768;2022-07-17T04:57:20;102172.44;;;16.07;100.00
4972;BME280;2501;51.214;6.768;2022-07-17T04:59:51;102165.28;;;16.10;100.00
4972;BME280;2501;51.214;6.768;2022-07-17T05:02:20;102169.75;;;16.22;100.00
4972;BME280;2501;51.214;6.768;2022-07-17T05:04:49;102169.81;;;16.32;100.00
4972;BME280;2501;51.214;6.768;2022-07-17T05:07:17;102168.22;;;16.35;100.00
4972;BME280;2501;51.214;6.768;2022-07-17T05:09:46;102181.03;;;16.39;100.00
4972;BME280;2501;51.214;6.768;2022-07-17T05:12:14;102183.94;;;16.53;100.00
4972;BME280;2501;51.214;6.768;2022-07-17T05:14:43;102179.59;;;16.60;100.00
4972;BME280;2501;51.214;6.768;2022-07-17T05:17:14;102182.06;;;16.68;100.00
4972;BME280;2501;51.214;6.768;2022-07-17T05:19:42;102185.69;;;16.76;100.00
4972;BME280;2501;51.214;6.768;2022-07-17T05:22:11;102188.84;;;16.71;100.00
4972;BME280;2501;51.214;6.768;2022-07-17T05:24:39;102180.94;;;16.90;100.00
4972;BME280;2501;51.214;6.768;2022-07-17T05:27:08;102183.47;;;17.24;100.00
4972;BME280;2501;51.214;6.768;2022-07-17T05:29:36;102189.00;;;17.02;100.00
4972;BME280;2501;51.214;6.768;2022-07-17T05:32:05;102194.00;;;17.59;100.00
4972;BME280;2501;51.214;6.768;2022-07-17T05:34:36;102196.31;;;17.39;100.00
4972;BME280;2501;51.214;6.768;2022-07-17T05:37:05;102200.53;;;16.90;100.00
4972;BME280;2501;51.214;6.768;2022-07-17T05:39:34;102205.53;;;17.46;100.00
4972;BME280;2501;51.214;6.768;2022-07-17T05:42:04;102211.13;;;17.54;100.00
4972;BME280;2501;51.214;6.768;2022-07-17T05:44:32;102212.28;;;17.28;100.00
4972;BME280;2501;51.214;6.768;2022-07-17T05:47:01;102203.81;;;17.17;100.00
4972;BME280;2501;51.214;6.768;2022-07-17T05:49:29;102207.53;;;17.53;100.00
4972;BME280;2501;51.214;6.768;2022-07-17T05:52:00;102215.91;;;17.32;100.00
4972;BME280;2501;51.214;6.768;2022-07-17T05:54:29;102213.84;;;17.18;100.00
4972;BME280;2501;51.214;6.768;2022-07-17T05:56:58;102217.44;;;17.22;100.00
4972;BME280;2501;51.214;6.768;2022-07-17T05:59:26;102216.28;;;17.27;100.00
4972;BME280;2501;51.214;6.768;2022-07-17T06:01:55;102210.75;;;17.55;100.00
4972;BME280;2501;51.214;6.768;2022-07-17T06:04:23;102202.72;;;17.36;100.00
4972;BME280;2501;51.214;6.768;2022-07-17T06:06:52;102204.38;;;17.62;100.00
4972;BME280;2501;51.214;6.768;2022-07-17T06:09:23;102207.53;;;17.49;100.00
4972;BME280;2501;51.214;6.768;2022-07-17T06:11:51;102204.00;;;17.63;100.00
4972;BME280;2501;51.214;6.768;2022-07-17T06:14:20;102203.22;;;17.98;100.00
4972;BME280;2501;51.214;6.768;2022-07-17T06:16:50;102206.03;;;17.87;100.00
4972;BME280;2501;51.214;6.768;2022-07-17T06:19:19;102197.19;;;18.00;100.00
4972;BME280;2501;51.214;6.768;2022-07-17T06:21:47;102197.63;;;18.09;100.00
4972;BME280;2501;51.214;6.768;2022-07-17T06:24:15;102199.63;;;18.22;100.00
4972;BME280;2501;51.214;6.768;2022-07-17T06:26:47;102198.03;;;18.14;100.00
4972;BME280;2501;51.214;6.768;2022-07-17T06:29:16;102193.16;;;18.39;100.00
4972;BME280;2501;51.214;6.768;2022-07-17T06:31:44;102188.34;;;18.47;100.00
4972;BME280;2501;51.214;6.768;2022-07-17T06:34:13;102183.16;;;18.56;100.00
4972;BME280;2501;51.214;6.768;2022-07-17T06:36:41;102176.16;;;19.07;100.00
4972;BME280;2501;51.214;6.768;2022-07-17T06:39:10;102177.41;;;18.92;100.00
4972;BME280;2501;51.214;6.768;2022-07-17T06:41:38;102179.47;;;18.80;100.00
4972;BME280;2501;51.214;6.768;2022-07-17T06:44:09;102182.66;;;18.89;100.00
4972;BME280;2501;51.214;6.768;2022-07-17T06:46:38;102173.44;;;18.82;100.00
4972;BME280;2501;51.214;6.768;2022-07-17T06:49:06;102172.91;;;19.12;100.00
4972;BME280;2501;51.214;6.768;2022-07-17T06:51:35;102178.50;;;19.15;100.00
4972;BME280;2501;51.214;6.768;2022-07-17T06:54:04;102174.88;;;19.18;100.00
4972;BME280;2501;51.214;6.768;2022-07-17T06:56:32;102178.13;;;19.10;100.00
4972;BME280;2501;51.214;6.768;2022-07-17T06:59:01;102180.94;;;19.10;100.00
4972;BME280;2501;51.214;6.768;2022-07-17T07:01:35;102181.41;;;19.01;100.00
4972;BME280;2501;51.214;6.768;2022-07-17T07:04:04;102176.34;;;19.51;100.00
4972;BME280;2501;51.214;6.768;2022-07-17T07:06:33;102172.31;;;19.52;100.00
4972;BME280;2501;51.214;6.768;2022-07-17T07:09:02;102183.69;;;19.24;100.00
4972;BME280;2501;51.214;6.768;2022-07-17T07:11:30;102182.00;;;19.41;100.00
4972;BME280;2501;51.214;6.768;2022-07-17T07:14:00;102183.53;;;19.56;100.00
4972;BME280;2501;51.214;6.768;2022-07-17T07:16:28;102190.44;;;19.44;100.00
4972;BME280;2501;51.214;6.768;2022-07-17T07:19:00;102187.63;;;19.44;100.00
4972;BME280;2501;51.214;6.768;2022-07-17T07:21:28;102172.09;;;19.80;100.00
4972;BME280;2501;51.214;6.768;2022-07-17T07:23:57;102172.53;;;19.75;100.00
4972;BME280;2501;51.214;6.768;2022-07-17T07:26:25;102168.06;;;19.81;100.00
4972;BME280;2501;51.214;6.768;2022-07-17T07:28:54;102177.44;;;20.12;100.00
4972;BME280;2501;51.214;6.768;2022-07-17T07:31:22;102173.63;;;19.89;100.00
4972;BME280;2501;51.214;6.768;2022-07-17T07:33:51;102182.41;;;19.98;100.00
4972;BME280;2501;51.214;6.768;2022-07-17T07:36:22;102194.91;;;20.38;100.00
4972;BME280;2501;51.214;6.768;2022-07-17T07:38:50;102179.88;;;20.10;100.00
4972;BME280;2501;51.214;6.768;2022-07-17T07:41:19;102178.97;;;20.20;100.00
4972;BME280;2501;51.214;6.768;2022-07-17T07:43:47;102178.19;;;20.16;100.00
4972;BME280;2501;51.214;6.768;2022-07-17T07:46:16;102189.09;;;20.14;100.00
4972;BME280;2501;51.214;6.768;2022-07-17T07:48:45;102192.00;;;20.00;100.00
4972;BME280;2501;51.214;6.768;2022-07-17T07:51:13;102199.34;;;20.35;100.00
4972;BME280;2501;51.214;6.768;2022-07-17T07:53:44;102202.84;;;20.50;100.00
4972;BME280;2501;51.214;6.768;2022-07-17T07:56:13;102208.94;;;20.78;100.00
4972;BME280;2501;51.214;6.768;2022-07-17T07:58:41;102207.13;;;20.61;100.00
4972;BME280;2501;51.214;6.768;2022-07-17T08:01:10;102219.06;;;20.28;100.00
4972;BME280;2501;51.214;6.768;2022-07-17T08:03:38;102215.78;;;20.40;100.00
4972;BME280;2501;51.214;6.768;2022-07-17T08:06:07;102221.31;;;20.88;100.00
4972;BME280;2501;51.214;6.768;2022-07-17T08:08:35;102209.66;;;20.86;100.00
4972;BME280;2501;51.214;6.768;2022-07-17T08:11:06;102214.22;;;21.07;100.00
4972;BME280;2501;51.214;6.768;2022-07-17T08:13:36;102215.44;;;20.72;100.00
4972;BME280;2501;51.214;6.768;2022-07-17T08:16:05;102216.66;;;21.39;100.00
4972;BME280;2501;51.214;6.768;2022-07-17T08:18:34;102215.81;;;21.42;100.00
4972;BME280;2501;51.214;6.768;2022-07-17T08:21:02;102220.22;;;21.43;100.00
4972;BME280;2501;51.214;6.768;2022-07-17T08:23:31;102222.16;;;21.19;100.00
4972;BME280;2501;51.214;6.768;2022-07-17T08:25:59;102216.19;;;21.44;100.00
4972;BME280;2501;51.214;6.768;2022-07-17T08:28:31;102209.06;;;21.36;100.00
4972;BME280;2501;51.214;6.768;2022-07-17T08:30:59;102218.13;;;21.20;100.00
4972;BME280;2501;51.214;6.768;2022-07-17T08:33:28;102225.81;;;21.16;100.00
4972;BME280;2501;51.214;6.768;2022-07-17T08:35:58;102217.50;;;21.02;100.00
4972;BME280;2501;51.214;6.768;2022-07-17T08:38:27;102224.31;;;21.04;100.00
4972;BME280;2501;51.214;6.768;2022-07-17T08:40:56;102224.66;;;21.10;100.00
4972;BME280;2501;51.214;6.768;2022-07-17T08:43:25;102229.72;;;21.52;100.00
4972;BME280;2501;51.214;6.768;2022-07-17T08:45:56;102231.22;;;21.64;97.65
4972;BME280;2501;51.214;6.768;2022-07-17T08:48:27;102220.84;;;21.81;88.17
4972;BME280;2501;51.214;6.768;2022-07-17T08:50:59;102221.59;;;21.31;88.77
4972;BME280;2501;51.214;6.768;2022-07-17T08:53:27;102219.00;;;21.70;85.41
4972;BME280;2501;51.214;6.768;2022-07-17T08:55:56;102210.81;;;22.30;79.14
4972;BME280;2501;51.214;6.768;2022-07-17T08:58:24;102215.66;;;22.06;77.07
4972;BME280;2501;51.214;6.768;2022-07-17T09:00:56;102209.75;;;21.97;78.79
4972;BME280;2501;51.214;6.768;2022-07-17T09:03:24;102206.63;;;21.88;83.15
4972;BME280;2501;51.214;6.768;2022-07-17T09:05:53;102212.13;;;21.45;85.99
4972;BME280;2501;51.214;6.768;2022-07-17T09:08:23;102204.50;;;21.99;84.65
4972;BME280;2501;51.214;6.768;2022-07-17T09:10:58;102204.91;;;21.70;83.38
4972;BME280;2501;51.214;6.768;2022-07-17T09:13:29;102208.03;;;21.76;83.07
4972;BME280;2501;51.214;6.768;2022-07-17T09:16:08;102212.91;;;21.76;82.41
4972;BME280;2501;51.214;6.768;2022-07-17T09:18:43;102204.19;;;22.16;81.00
4972;BME280;2501;51.214;6.768;2022-07-17T09:21:17;102205.81;;;22.60;79.13
4972;BME280;2501;51.214;6.768;2022-07-17T09:23:57;102200.44;;;22.46;77.34
4972;BME280;2501;51.214;6.768;2022-07-17T09:26:28;102204.16;;;22.40;77.90
4972;BME280;2501;51.214;6.768;2022-07-17T09:28:58;102203.16;;;22.73;76.90
4972;BME280;2501;51.214;6.768;2022-07-17T09:31:30;102207.00;;;22.83;76.59
4972;BME280;2501;51.214;6.768;2022-07-17T09:33:59;102207.16;;;22.76;75.89
4972;BME280;2501;51.214;6.768;2022-07-17T09:36:28;102208.16;;;22.42;75.05
4972;BME280;2501;51.214;6.768;2022-07-17T09:38:58;102201.34;;;23.02;73.29
4972;BME280;2501;51.214;6.768;2022-07-17T09:41:27;102199.81;;;22.98;72.73
4972;BME280;2501;51.214;6.768;2022-07-17T09:43:59;102205.66;;;22.68;71.21
4972;BME280;2501;51.214;6.768;2022-07-17T09:46:32;102201.13;;;22.50;72.36
4972;BME280;2501;51.214;6.768;2022-07-17T09:49:03;102193.78;;;22.56;69.88
4972;BME280;2501;51.214;6.768;2022-07-17T09:51:34;102193.03;;;22.76;67.93
4972;BME280;2501;51.214;6.768;2022-07-17T09:54:05;102196.91;;;23.21;64.47
4972;BME280;2501;51.214;6.768;2022-07-17T09:56:36;102194.66;;;23.32;62.93
4972;BME280;2501;51.214;6.768;2022-07-17T09:59:06;102191.81;;;23.32;60.25
4972;BME280;2501;51.214;6.768;2022-07-17T10:01:38;102191.38;;;23.70;61.13
4972;BME280;2501;51.214;6.768;2022-07-17T10:04:07;102202.22;;;23.55;62.56
4972;BME280;2501;51.214;6.768;2022-07-17T10:06:36;102192.72;;;22.90;61.91
4972;BME280;2501;51.214;6.768;2022-07-17T10:09:05;102190.59;;;23.14;62.59
4972;BME280;2501;51.214;6.768;2022-07-17T10:11:36;102197.91;;;23.31;62.69
4972;BME280;2501;51.214;6.768;2022-07-17T10:14:09;102198.34;;;23.65;61.74
4972;BME280;2501;51.214;6.768;2022-07-17T10:16:41;102201.53;;;23.67;61.20
4972;BME280;2501;51.214;6.768;2022-07-17T10:19:18;102202.97;;;23.91;60.22
4972;BME280;2501;51.214;6.768;2022-07-17T10:21:54;102197.75;;;23.90;58.79
4972;BME280;2501;51.214;6.768;2022-07-17T10:24:23;102204.91;;;23.78;58.14
4972;BME280;2501;51.214;6.768;2022-07-17T10:26:52;102207.03;;;23.74;57.15
4972;BME280;2501;51.214;6.768;2022-07-17T10:29:31;102191.94;;;23.45;56.96
4972;BME280;2501;51.214;6.768;2022-07-17T10:32:07;102201.03;;;23.36;57.42
4972;BME280;2501;51.214;6.768;2022-07-17T10:34:38;102202.50;;;23.61;56.87
4972;BME280;2501;51.214;6.768;2022-07-17T10:37:21;102193.47;;;23.30;58.67
4972;BME280;2501;51.214;6.768;2022-07-17T10:42:51;102201.63;;;23.64;57.56
4972;BME280;2501;51.214;6.768;2022-07-17T10:45:24;102206.50;;;23.63;57.00
4972;BME280;2501;51.214;6.768;2022-07-17T10:47:58;102194.81;;;23.77;58.12
4972;BME280;2501;51.214;6.768;2022-07-17T10:50:29;102204.72;;;23.69;57.17
4972;BME280;2501;51.214;6.768;2022-07-17T10:53:03;102207.03;;;23.38;59.00
4972;BME280;2501;51.214;6.768;2022-07-17T10:55:33;102203.41;;;23.38;59.63
4972;BME280;2501;51.214;6.768;2022-07-17T10:58:03;102205.56;;;23.50;59.09
4972;BME280;2501;51.214;6.768;2022-07-17T11:00:31;102205.72;;;23.79;57.93
4972;BME280;2501;51.214;6.768;2022-07-17T11:03:10;102205.50;;;23.53;57.40
4972;BME280;2501;51.214;6.768;2022-07-17T11:05:39;102208.00;;;23.68;57.86
4972;BME280;2501;51.214;6.768;2022-07-17T11:08:08;102200.41;;;23.97;56.04
4972;BME280;2501;51.214;6.768;2022-07-17T11:10:38;102192.09;;;24.06;53.52
4972;BME280;2501;51.214;6.768;2022-07-17T11:13:11;102193.22;;;23.92;54.17
4972;BME280;2501;51.214;6.768;2022-07-17T11:15:45;102190.69;;;23.98;54.90
4972;BME280;2501;51.214;6.768;2022-07-17T11:18:20;102190.59;;;24.01;54.87
4972;BME280;2501;51.214;6.768;2022-07-17T11:20:51;102191.66;;;24.24;54.42
4972;BME280;2501;51.214;6.768;2022-07-17T11:23:21;102183.09;;;23.95;53.88
4972;BME280;2501;51.214;6.768;2022-07-17T11:25:59;102172.81;;;24.01;54.88
4972;BME280;2501;51.214;6.768;2022-07-17T11:28:42;102161.22;;;24.28;54.24
4972;BME280;2501;51.214;6.768;2022-07-17T11:31:19;102164.44;;;24.42;53.38
4972;BME280;2501;51.214;6.768;2022-07-17T11:33:52;102161.88;;;24.48;52.87
4972;BME280;2501;51.214;6.768;2022-07-17T11:36:26;102171.16;;;24.48;52.39
4972;BME280;2501;51.214;6.768;2022-07-17T11:38:58;102159.88;;;24.32;53.15
4972;BME280;2501;51.214;6.768;2022-07-17T11:41:34;102167.28;;;24.42;52.03
4972;BME280;2501;51.214;6.768;2022-07-17T11:44:04;102166.47;;;24.58;52.10
4972;BME280;2501;51.214;6.768;2022-07-17T11:46:33;102160.91;;;24.67;50.88
4972;BME280;2501;51.214;6.768;2022-07-17T11:49:05;102164.66;;;24.64;51.98
4972;BME280;2501;51.214;6.768;2022-07-17T11:51:35;102162.56;;;24.81;50.87
4972;BME280;2501;51.214;6.768;2022-07-17T11:54:05;102162.06;;;24.70;51.23
4972;BME280;2501;51.214;6.768;2022-07-17T11:56:34;102162.81;;;24.58;51.43
4972;BME280;2501;51.214;6.768;2022-07-17T11:59:06;102155.50;;;24.73;51.59
4972;BME280;2501;51.214;6.768;2022-07-17T12:01:39;102154.63;;;25.42;50.12
4972;BME280;2501;51.214;6.768;2022-07-17T12:04:13;102150.41;;;25.47;50.14
4972;BME280;2501;51.214;6.768;2022-07-17T12:06:42;102145.75;;;25.91;48.79
4972;BME280;2501;51.214;6.768;2022-07-17T12:09:11;102142.38;;;26.18;48.22
4972;BME280;2501;51.214;6.768;2022-07-17T12:11:47;102147.38;;;26.48;47.24
4972;BME280;2501;51.214;6.768;2022-07-17T12:14:16;102141.56;;;26.17;45.62
4972;BME280;2501;51.214;6.768;2022-07-17T12:16:45;102144.47;;;26.39;46.10
4972;BME280;2501;51.214;6.768;2022-07-17T12:19:18;102149.47;;;26.01;46.08
4972;BME280;2501;51.214;6.768;2022-07-17T12:21:55;102136.94;;;26.45;45.79
4972;BME280;2501;51.214;6.768;2022-07-17T12:24:27;102142.00;;;25.81;45.76
4972;BME280;2501;51.214;6.768;2022-07-17T12:26:58;102142.22;;;25.87;46.04
4972;BME280;2501;51.214;6.768;2022-07-17T12:29:27;102141.00;;;25.37;46.26
4972;BME280;2501;51.214;6.768;2022-07-17T12:32:07;102139.19;;;25.56;46.58
4972;BME280;2501;51.214;6.768;2022-07-17T12:34:41;102135.22;;;25.66;46.66
4972;BME280;2501;51.214;6.768;2022-07-17T12:37:14;102129.72;;;25.97;46.14
4972;BME280;2501;51.214;6.768;2022-07-17T12:39:43;102129.78;;;25.59;46.50
4972;BME280;2501;51.214;6.768;2022-07-17T12:42:11;102131.88;;;25.93;46.77
4972;BME280;2501;51.214;6.768;2022-07-17T12:44:40;102122.28;;;25.78;46.68
4972;BME280;2501;51.214;6.768;2022-07-17T12:47:10;102132.38;;;25.79;46.90
4972;BME280;2501;51.214;6.768;2022-07-17T12:49:42;102133.00;;;25.96;46.65
4972;BME280;2501;51.214;6.768;2022-07-17T12:52:10;102121.59;;;26.43;46.34
4972;BME280;2501;51.214;6.768;2022-07-17T12:54:39;102125.28;;;25.96;46.54
4972;BME280;2501;51.214;6.768;2022-07-17T12:57:08;102130.91;;;25.62;47.26
4972;BME280;2501;51.214;6.768;2022-07-17T12:59:36;102124.31;;;26.12;47.39
4972;BME280;2501;51.214;6.768;2022-07-17T13:02:05;102121.22;;;25.84;47.08
4972;BME280;2501;51.214;6.768;2022-07-17T13:04:33;102117.75;;;26.15;46.99
4972;BME280;2501;51.214;6.768;2022-07-17T13:07:05;102117.34;;;27.52;45.94
4972;BME280;2501;51.214;6.768;2022-07-17T13:09:33;102111.50;;;28.14;43.83
4972;BME280;2501;51.214;6.768;2022-07-17T13:12:03;102107.63;;;27.71;44.43
4972;BME280;2501;51.214;6.768;2022-07-17T13:14:32;102106.25;;;28.12;44.19
4972;BME280;2501;51.214;6.768;2022-07-17T13:17:00;102095.78;;;29.24;42.87
4972;BME280;2501;51.214;6.768;2022-07-17T13:19:29;102105.88;;;28.83;43.18
4972;BME280;2501;51.214;6.768;2022-07-17T13:21:57;102107.22;;;28.37;43.85
4972;BME280;2501;51.214;6.768;2022-07-17T13:24:29;102101.31;;;29.28;42.63